weather.gov     
National Weather Service

Terminal Aerodrome Forecast
NWS Homepage
This page is being discontinued on March 12, 2014.
The same data is available at this site. Please update your bookmarks.
Thank you, and we apologize for the inconvenience.
Please send an email to SR-SRH.Webmaster@noaa.gov with any concerns.


Current Version
Previous Version:    01  02  03  04  05  06  07  08  09  10  11  12  13  14  15  16  17  18  19  20  21  22  23  24  25  26  27  28  29  30  
   31  32  33  
[Printable]
141
FTUS43 KARX 240520
TAFRST
TAF
KRST 240520Z 2406/2506 13017G24KT P6SM -SHRA OVC035
     FM240900 13018G24KT 5SM -RA OVC025
     FM241100 12016G20KT 2SM -RA BR OVC007
     FM241600 13012KT 4SM -RA OVC004
     FM242100 26010KT P6SM OVC012
     FM250300 30009KT P6SM SCT020=




141
FTUS43 KARX 240520
TAFRST
TAF
KRST 240520Z 2406/2506 13017G24KT P6SM -SHRA OVC035
     FM240900 13018G24KT 5SM -RA OVC025
     FM241100 12016G20KT 2SM -RA BR OVC007
     FM241600 13012KT 4SM -RA OVC004
     FM242100 26010KT P6SM OVC012
     FM250300 30009KT P6SM SCT020=


U.S. Dept. of Commerce
NOAA National Weather Service
1325 East West Highway
Silver Spring, MD 20910
E-mail: w-nws.webmaster@noaa.gov
Page last modified: May 16, 2007
NATIONAL WEATHER SERVICE: for Safety, for Work, for Fun - FOR LIFE